Time;durP1;ratioP1;P1;durP2;ratioP2;P2;SDS_P1;SDS_P2;PMS_P1;PMS_P2;Temp;Humidity;BMP_temperature;BMP_pressure;BME280_temperature;BME280_humidity;BME280_pressure;Samples;Min_cycle;Max_cycle;Signal;HPM_P1;HPM_P2
2021/12/09 00:00:04;;;;;;;;;;;;;;;29.18;20.59;95782.09;170708;28;881;-51
2021/12/09 00:00:11;;;;;;;;;;;;;;;29.17;20.36;95781.28;170579;28;1169;-51
2021/12/09 00:00:18;;;;;;;;;;;;;;;29.17;20.39;95780.47;170672;28;1161;-50
2021/12/09 00:00:28;;;;;;;;;;;;;;;29.15;20.48;95777.16;170701;28;1000;-50
2021/12/09 00:00:43;;;;;;;;;;;;;;;29.14;20.42;95778.16;170675;28;893;-50
2021/12/09 00:01:07;;;;;;;;;;;;;;;29.13;20.49;95779.19;170208;29;944;-52
2021/12/09 00:01:13;;;;;;;;;;;;;;;29.14;20.56;95783.47;170591;29;802;-50
2021/12/09 00:01:22;;;;;;;;;;;;;;;29.10;20.42;95774.25;170706;28;1230;-51
2021/12/09 00:01:28;;;;;;;;;;;;;;;29.09;20.58;95776.09;170665;28;1150;-50
2021/12/09 00:01:36;;;;;;;;;;;;;;;29.10;20.57;95777.72;170595;28;805;-51
2021/12/09 00:01:42;;;;;;;;;;;;;;;29.12;20.45;95775.72;170529;28;1150;-49
2021/12/09 00:01:48;;;;;;;;;;;;;;;29.13;20.63;95781.84;170663;29;802;-50
2021/12/09 00:01:53;;;;;;;;;;;;;;;29.14;20.32;95780.81;170647;28;1169;-50
2021/12/09 00:01:59;;;;;;;;;;;;;;;29.13;20.33;95779.19;170738;28;850;-50
2021/12/09 00:02:05;;;;;;;;;;;;;;;29.14;20.70;95779.00;170660;29;1217;-49
2021/12/09 00:02:15;;;;;;;;;;;;;;;29.15;20.35;95778.00;170185;28;4300;-50
2021/12/09 00:02:22;;;;;;;;;;;;;;;29.13;20.69;95782.66;170668;28;857;-49
2021/12/09 00:02:31;;;;;;;;;;;;;;;29.12;20.67;95781.00;170644;28;1142;-50
2021/12/09 00:02:36;;;;;;;;;;;;;;;29.06;20.37;95780.94;170619;28;837;-50
2021/12/09 00:02:41;;;;;;;;;;;;;;;29.07;20.54;95779.91;170565;29;1228;-51
2021/12/09 00:02:46;;;;;;;;;;;;;;;29.09;20.58;95778.75;170689;28;837;-51
2021/12/09 00:02:51;;;;;;;;;;;;;;;29.11;20.71;95784.69;170652;29;1233;-50
2021/12/09 00:02:57;;;;;;;;;;;;;;;29.06;20.37;95784.41;171278;28;1121;-51
2021/12/09 00:03:06;;;;;;;;;;;;;;;29.09;20.39;95786.72;171300;28;1106;-51
2021/12/09 00:03:11;;;;;;;;;;;;;;;29.11;20.56;95778.56;171276;28;1261;-50
2021/12/09 00:03:17;;;;;;;;;;;;;;;29.13;20.50;95780.00;171303;28;1182;-50
2021/12/09 00:03:22;;;;;;;;;;;;;;;29.14;20.51;95783.47;171333;28;890;-49
2021/12/09 00:03:28;;;;;;;;;;;;;;;29.10;20.42;95780.38;171270;28;1162;-50
2021/12/09 00:03:35;;;;;;;;;;;;;;;29.07;20.71;95783.44;171259;28;822;-50
2021/12/09 00:03:40;;;;;;;;;;;;;;;29.09;20.50;95786.72;171106;28;1086;-50
2021/12/09 00:03:45;;;;;;;;;;;;;;;29.11;20.33;95781.22;171400;28;794;-50
2021/12/09 00:03:53;;;;;;;;;;;;;;;29.11;20.30;95782.03;171280;28;1173;-50
2021/12/09 00:03:59;;;;;;;;;;;;;;;29.12;20.63;95786.31;171327;28;963;-53
2021/12/09 00:04:06;;;;;;;;;;;;;;;29.10;20.48;95783.03;171271;28;1174;-49
2021/12/09 00:04:13;;;;;;;;;;;;;;;29.10;20.65;95788.34;171362;28;775;-50
2021/12/09 00:04:25;;;;;;;;;;;;;;;29.10;20.63;95785.69;171336;28;846;-50
2021/12/09 00:04:31;;;;;;;;;;;;;;;29.12;20.30;95786.31;171344;28;795;-51
2021/12/09 00:04:36;;;;;;;;;;;;;;;29.10;20.55;95792.84;171082;28;1233;-51
2021/12/09 00:04:42;;;;;;;;;;;;;;;29.11;20.66;95792.66;171290;28;905;-50
2021/12/09 00:04:47;;;;;;;;;;;;;;;29.13;20.72;95787.97;171389;28;894;-50
2021/12/09 00:04:55;;;;;;;;;;;;;;;29.13;20.31;95790.63;171258;28;1194;-51
2021/12/09 00:05:00;;;;;;;;;;;;;;;29.13;20.46;95793.28;171261;28;1138;-50
2021/12/09 00:05:06;;;;;;;;;;;;;;;29.12;20.49;95790.81;171330;28;790;-51
2021/12/09 00:05:12;;;;;;;;;;;;;;;29.13;20.30;95803.91;171150;28;1513;-49
2021/12/09 00:05:17;;;;;;;;;;;;;;;29.14;20.58;95794.09;170313;28;1622;-50
2021/12/09 00:05:23;;;;;;;;;;;;;;;29.14;20.51;95797.56;170472;28;1640;-50
2021/12/09 00:05:30;;;;;;;;;;;;;;;29.12;20.76;95796.94;171210;28;881;-51
2021/12/09 00:05:36;;;;;;;;;;;;;;;29.14;20.32;95794.91;171064;28;1106;-50
2021/12/09 00:05:44;;;;;;;;;;;;;;;29.13;20.35;95797.75;170636;28;1521;-49
2021/12/09 00:05:49;;;;;;;;;;;;;;;29.11;20.63;95800.59;171084;28;979;-50
2021/12/09 00:05:58;;;;;;;;;;;;;;;29.09;20.34;95792.00;171160;28;794;-50
2021/12/09 00:06:03;;;;;;;;;;;;;;;29.16;20.50;95797.41;171256;28;1261;-50
2021/12/09 00:06:09;;;;;;;;;;;;;;;29.16;20.42;95798.22;170851;28;4204;-52
2021/12/09 00:06:17;;;;;;;;;;;;;;;29.13;20.69;95798.59;171226;28;1236;-50
2021/12/09 00:06:24;;;;;;;;;;;;;;;29.14;20.68;95802.88;171288;28;1126;-51
2021/12/09 00:06:30;;;;;;;;;;;;;;;29.13;20.63;95806.53;171298;28;841;-51
2021/12/09 00:06:36;;;;;;;;;;;;;;;29.10;20.46;95806.94;171155;28;1086;-51
2021/12/09 00:06:43;;;;;;;;;;;;;;;29.09;20.44;95807.13;171114;28;647;-50
2021/12/09 00:06:48;;;;;;;;;;;;;;;29.15;20.43;95804.56;171230;28;1237;-50
2021/12/09 00:06:54;;;;;;;;;;;;;;;29.18;20.25;95804.16;171378;28;778;-50
2021/12/09 00:07:01;;;;;;;;;;;;;;;29.16;20.61;95808.84;171170;28;1094;-51
2021/12/09 00:07:06;;;;;;;;;;;;;;;29.16;20.45;95810.69;171234;28;926;-50
2021/12/09 00:07:11;;;;;;;;;;;;;;;29.15;20.72;95804.56;171245;28;1110;-51
2021/12/09 00:07:17;;;;;;;;;;;;;;;29.16;20.33;95814.16;171337;28;877;-50
2021/12/09 00:07:22;;;;;;;;;;;;;;;29.12;20.50;95796.94;171279;28;1237;-50
2021/12/09 00:07:28;;;;;;;;;;;;;;;29.15;20.48;95811.66;171300;28;864;-52
2021/12/09 00:07:33;;;;;;;;;;;;;;;29.12;20.29;95807.56;171214;28;1125;-50
2021/12/09 00:07:41;;;;;;;;;;;;;;;29.14;20.31;95812.69;171181;28;881;-51
2021/12/09 00:07:50;;;;;;;;;;;;;;;29.16;20.62;95808.03;171321;28;1181;-51
2021/12/09 00:07:56;;;;;;;;;;;;;;;29.14;20.61;95810.03;171329;28;858;-50
2021/12/09 00:08:01;;;;;;;;;;;;;;;29.16;20.30;95810.69;171151;28;1079;-50
2021/12/09 00:08:07;;;;;;;;;;;;;;;29.18;20.30;95812.13;171145;28;1158;-52
2021/12/09 00:08:13;;;;;;;;;;;;;;;29.18;20.49;95813.97;171179;28;1157;-51
2021/12/09 00:08:18;;;;;;;;;;;;;;;29.19;20.40;95816.44;171354;28;873;-50
2021/12/09 00:08:25;;;;;;;;;;;;;;;29.16;20.25;95814.16;171290;28;1170;-50
2021/12/09 00:08:30;;;;;;;;;;;;;;;29.17;20.28;95813.16;171267;28;867;-50
2021/12/09 00:08:37;;;;;;;;;;;;;;;29.19;20.53;95811.13;171166;28;1200;-51
2021/12/09 00:08:42;;;;;;;;;;;;;;;29.19;20.41;95815.59;171274;28;849;-50
2021/12/09 00:08:47;;;;;;;;;;;;;;;29.17;20.47;95814.97;171286;28;1074;-50
2021/12/09 00:08:53;;;;;;;;;;;;;;;29.20;20.29;95817.25;171391;28;818;-50
2021/12/09 00:09:00;;;;;;;;;;;;;;;29.20;20.54;95806.63;171274;28;1162;-51
2021/12/09 00:09:06;;;;;;;;;;;;;;;29.17;20.71;95810.50;171315;28;886;-50
2021/12/09 00:09:15;;;;;;;;;;;;;;;29.18;20.55;95814.78;171233;28;1236;-50
2021/12/09 00:09:20;;;;;;;;;;;;;;;29.18;20.61;95820.09;171291;28;1161;-50
2021/12/09 00:09:25;;;;;;;;;;;;;;;29.19;20.32;95813.78;171328;28;866;-51
2021/12/09 00:09:31;;;;;;;;;;;;;;;29.16;20.39;95814.16;171171;28;1125;-53
2021/12/09 00:09:36;;;;;;;;;;;;;;;29.14;20.49;95813.50;171092;28;855;-50
2021/12/09 00:09:41;;;;;;;;;;;;;;;29.09;20.52;95818.56;171233;28;778;-50
2021/12/09 00:09:46;;;;;;;;;;;;;;;29.10;20.46;95814.06;171185;28;1166;-51
2021/12/09 00:09:52;;;;;;;;;;;;;;;29.14;20.60;95816.16;171190;28;937;-49
2021/12/09 00:09:57;;;;;;;;;;;;;;;29.13;20.51;95819.81;171199;28;1134;-50
2021/12/09 00:10:06;;;;;;;;;;;;;;;29.14;20.64;95815.34;171254;28;906;-50
2021/12/09 00:10:11;;;;;;;;;;;;;;;29.15;20.60;95811.66;170304;29;4372;-50
2021/12/09 00:10:16;;;;;;;;;;;;;;;29.13;20.45;95813.69;170718;29;886;-51
2021/12/09 00:10:22;;;;;;;;;;;;;;;29.13;20.61;95811.84;171186;28;1226;-50
2021/12/09 00:10:27;;;;;;;;;;;;;;;29.16;20.39;95819.47;171366;28;964;-51
2021/12/09 00:10:33;;;;;;;;;;;;;;;29.17;20.30;95815.81;171214;28;1170;-50
2021/12/09 00:10:39;;;;;;;;;;;;;;;29.17;20.47;95815.81;171118;28;856;-51
2021/12/09 00:10:44;;;;;;;;;;;;;;;29.14;20.60;95816.16;171240;28;1166;-50
2021/12/09 00:10:49;;;;;;;;;;;;;;;29.13;20.29;95819.00;171354;28;814;-51
2021/12/09 00:10:55;;;;;;;;;;;;;;;29.14;20.78;95821.47;171189;28;1229;-50
2021/12/09 00:11:01;;;;;;;;;;;;;;;29.12;20.57;95815.53;171268;28;1008;-49
2021/12/09 00:11:07;;;;;;;;;;;;;;;29.11;20.61;95821.84;171232;28;1226;-50
2021/12/09 00:11:12;;;;;;;;;;;;;;;29.09;20.28;95821.22;171220;28;905;-50
2021/12/09 00:11:17;;;;;;;;;;;;;;;29.08;20.61;95816.91;171295;28;1166;-51
2021/12/09 00:11:23;;;;;;;;;;;;;;;29.06;20.43;95820.75;171278;28;814;-50
2021/12/09 00:11:29;;;;;;;;;;;;;;;29.08;20.45;95818.75;171287;28;1099;-50
2021/12/09 00:11:42;;;;;;;;;;;;;;;29.13;20.43;95821.66;171279;28;600;-50
2021/12/09 00:11:49;;;;;;;;;;;;;;;29.18;20.31;95824.59;171391;28;916;-50
2021/12/09 00:11:54;;;;;;;;;;;;;;;29.17;20.31;95815.81;171289;28;1189;-50
2021/12/09 00:11:59;;;;;;;;;;;;;;;29.12;20.46;95818.19;171277;28;850;-49
2021/12/09 00:12:05;;;;;;;;;;;;;;;29.12;20.67;95820.00;171230;28;1138;-49
2021/12/09 00:12:10;;;;;;;;;;;;;;;29.14;20.39;95824.13;171187;28;818;-50
2021/12/09 00:12:16;;;;;;;;;;;;;;;29.13;20.49;95822.47;171284;28;1086;-50
2021/12/09 00:12:22;;;;;;;;;;;;;;;29.11;20.34;95819.19;171288;28;976;-51
2021/12/09 00:12:28;;;;;;;;;;;;;;;29.12;20.34;95822.66;171239;28;1153;-51
2021/12/09 00:12:33;;;;;;;;;;;;;;;29.11;20.67;95821.84;171285;28;790;-50
2021/12/09 00:12:38;;;;;;;;;;;;;;;29.13;20.64;95824.31;171149;28;921;-50
2021/12/09 00:12:43;;;;;;;;;;;;;;;29.11;20.79;95816.53;170678;29;814;-50
2021/12/09 00:12:49;;;;;;;;;;;;;;;29.14;20.35;95820.63;170674;29;936;-50
2021/12/09 00:12:54;;;;;;;;;;;;;;;29.16;20.43;95826.63;171027;28;1250;-50
2021/12/09 00:12:59;;;;;;;;;;;;;;;29.17;20.57;95826.41;171318;28;806;-51
2021/12/09 00:13:04;;;;;;;;;;;;;;;29.14;20.61;95820.63;171210;28;1118;-50
2021/12/09 00:13:09;;;;;;;;;;;;;;;29.14;20.49;95816.16;171189;28;1391;-50
2021/12/09 00:13:15;;;;;;;;;;;;;;;29.15;20.57;95819.63;171255;28;1303;-51
2021/12/09 00:13:20;;;;;;;;;;;;;;;29.16;20.36;95824.78;171330;28;837;-50
2021/12/09 00:13:26;;;;;;;;;;;;;;;29.16;20.53;95826.63;171303;28;891;-50
2021/12/09 00:13:31;;;;;;;;;;;;;;;29.15;20.67;95823.13;170566;29;869;-51
2021/12/09 00:13:36;;;;;;;;;;;;;;;29.16;20.19;95822.13;170478;29;996;-50
2021/12/09 00:13:41;;;;;;;;;;;;;;;29.18;20.31;95827.25;171037;28;1910;-51
2021/12/09 00:13:47;;;;;;;;;;;;;;;29.14;20.57;95821.47;171335;28;886;-51
2021/12/09 00:13:52;;;;;;;;;;;;;;;29.18;20.66;95825.41;171231;28;1163;-50
2021/12/09 00:13:57;;;;;;;;;;;;;;;29.18;20.31;95825.41;171356;28;1014;-51
2021/12/09 00:14:02;;;;;;;;;;;;;;;29.16;20.41;95824.78;171260;28;1150;-51
2021/12/09 00:14:08;;;;;;;;;;;;;;;29.16;20.33;95823.97;170818;28;4220;-51
2021/12/09 00:14:14;;;;;;;;;;;;;;;29.16;20.28;95819.47;171229;28;1166;-51
2021/12/09 00:14:23;;;;;;;;;;;;;;;29.11;20.25;95813.88;170842;28;1644;-50
2021/12/09 00:14:29;;;;;;;;;;;;;;;29.12;20.45;95823.50;171203;28;1151;-50
2021/12/09 00:14:35;;;;;;;;;;;;;;;29.14;20.70;95820.63;171127;28;798;-50
2021/12/09 00:14:40;;;;;;;;;;;;;;;29.15;20.61;95827.59;171172;28;1159;-50
2021/12/09 00:14:45;;;;;;;;;;;;;;;29.12;20.50;95833.28;170796;28;1588;-51
2021/12/09 00:14:50;;;;;;;;;;;;;;;29.15;20.62;95827.59;170184;28;1726;-49
2021/12/09 00:14:56;;;;;;;;;;;;;;;29.16;20.61;95819.47;170658;28;2001;-50
2021/12/09 00:15:01;;;;;;;;;;;;;;;29.19;20.62;95824.41;170865;28;1027;-50
2021/12/09 00:15:06;;;;;;;;;;;;;;;29.20;20.41;95825.22;171262;28;716;-50
2021/12/09 00:15:11;;;;;;;;;;;;;;;29.17;20.31;95822.94;170323;29;1601;-50
2021/12/09 00:15:16;;;;;;;;;;;;;;;29.17;20.55;95822.94;170575;29;838;-50
2021/12/09 00:15:22;;;;;;;;;;;;;;;29.18;20.21;95822.75;170586;29;885;-51
2021/12/09 00:15:27;;;;;;;;;;;;;;;29.15;20.43;95823.13;170570;28;1159;-50
2021/12/09 00:15:32;;;;;;;;;;;;;;;29.13;20.46;95825.13;170639;29;574;-50
2021/12/09 00:15:37;;;;;;;;;;;;;;;29.15;20.60;95827.59;170421;29;1064;-50
2021/12/09 00:15:42;;;;;;;;;;;;;;;29.14;20.54;95820.63;170207;29;1796;-50
2021/12/09 00:15:48;;;;;;;;;;;;;;;29.13;20.58;95821.66;170616;29;988;-51
2021/12/09 00:15:53;;;;;;;;;;;;;;;29.16;20.25;95823.97;170603;29;893;-51
2021/12/09 00:15:58;;;;;;;;;;;;;;;29.13;20.35;95819.81;170616;29;795;-50
2021/12/09 00:16:04;;;;;;;;;;;;;;;29.12;20.61;95822.66;169983;29;921;-50
2021/12/09 00:16:09;;;;;;;;;;;;;;;29.13;20.62;95814.50;169916;29;886;-50
2021/12/09 00:16:14;;;;;;;;;;;;;;;29.15;20.62;95822.28;170500;29;1179;-50
2021/12/09 00:16:19;;;;;;;;;;;;;;;29.16;20.31;95823.97;170632;29;1008;-50
2021/12/09 00:16:25;;;;;;;;;;;;;;;29.14;20.38;95825.94;170557;29;1123;-51
2021/12/09 00:16:30;;;;;;;;;;;;;;;29.15;20.60;95822.28;170671;29;826;-50
2021/12/09 00:16:35;;;;;;;;;;;;;;;29.15;20.44;95819.63;170405;29;1158;-51
2021/12/09 00:16:40;;;;;;;;;;;;;;;29.15;20.28;95828.44;170525;29;889;-51
2021/12/09 00:16:45;;;;;;;;;;;;;;;29.17;20.25;95829.06;170644;29;897;-50
2021/12/09 00:16:51;;;;;;;;;;;;;;;29.16;20.37;95822.13;170017;29;941;-50
2021/12/09 00:16:57;;;;;;;;;;;;;;;29.14;20.62;95825.94;169948;29;893;-50
2021/12/09 00:17:06;;;;;;;;;;;;;;;29.13;20.41;95835.75;170532;29;1275;-49
2021/12/09 00:17:11;;;;;;;;;;;;;;;29.17;20.60;95826.41;171074;28;1048;-50
2021/12/09 00:17:16;;;;;;;;;;;;;;;29.16;20.64;95823.97;171356;28;505;-50
2021/12/09 00:17:22;;;;;;;;;;;;;;;29.14;20.51;95826.78;171260;28;1166;-51
2021/12/09 00:17:27;;;;;;;;;;;;;;;29.15;20.23;95822.28;171326;28;869;-51
2021/12/09 00:17:32;;;;;;;;;;;;;;;29.12;20.49;95820.84;171282;28;873;-50
2021/12/09 00:17:37;;;;;;;;;;;;;;;29.16;20.36;95830.09;171189;28;1284;-51
2021/12/09 00:17:42;;;;;;;;;;;;;;;29.16;20.67;95824.78;171280;28;902;-51
2021/12/09 00:17:48;;;;;;;;;;;;;;;29.16;20.48;95827.44;171311;28;1178;-51
2021/12/09 00:17:53;;;;;;;;;;;;;;;29.17;20.67;95823.75;171302;28;981;-51
2021/12/09 00:17:58;;;;;;;;;;;;;;;29.18;20.32;95830.72;171258;28;1225;-51
2021/12/09 00:18:03;;;;;;;;;;;;;;;29.15;20.45;95823.13;171373;28;904;-50
2021/12/09 00:18:08;;;;;;;;;;;;;;;29.12;20.64;95822.66;170734;28;4256;-50
2021/12/09 00:18:13;;;;;;;;;;;;;;;29.09;20.53;95834.47;171329;28;949;-51
2021/12/09 00:18:19;;;;;;;;;;;;;;;29.10;20.67;95830.00;171327;28;1055;-50
2021/12/09 00:18:24;;;;;;;;;;;;;;;29.12;20.73;95823.50;171294;28;1159;-51
2021/12/09 00:18:29;;;;;;;;;;;;;;;29.16;20.69;95830.09;171327;28;992;-50
2021/12/09 00:18:34;;;;;;;;;;;;;;;29.18;20.65;95829.91;171183;28;1126;-50
2021/12/09 00:18:40;;;;;;;;;;;;;;;29.17;20.35;95834.38;171241;28;873;-51
2021/12/09 00:18:45;;;;;;;;;;;;;;;29.16;20.33;95831.91;171267;28;1161;-50
2021/12/09 00:18:50;;;;;;;;;;;;;;;29.16;20.28;95823.97;171351;28;976;-50
2021/12/09 00:18:55;;;;;;;;;;;;;;;29.17;20.31;95831.72;171307;28;1158;-50
2021/12/09 00:19:00;;;;;;;;;;;;;;;29.17;20.41;95836.22;171300;28;886;-50
2021/12/09 00:19:06;;;;;;;;;;;;;;;29.14;20.57;95836.56;171299;28;924;-50
2021/12/09 00:19:12;;;;;;;;;;;;;;;29.13;20.32;95833.09;171344;28;1142;-50
2021/12/09 00:19:17;;;;;;;;;;;;;;;29.13;20.38;95832.28;171349;28;842;-50
2021/12/09 00:19:22;;;;;;;;;;;;;;;29.12;20.30;95843.91;171218;28;1162;-51
2021/12/09 00:19:27;;;;;;;;;;;;;;;29.13;20.63;95835.75;171366;28;1020;-50
2021/12/09 00:19:33;;;;;;;;;;;;;;;29.13;20.56;95842.88;171227;28;1165;-50
2021/12/09 00:19:38;;;;;;;;;;;;;;;29.14;20.29;95834.72;171170;28;1067;-51
2021/12/09 00:19:43;;;;;;;;;;;;;;;29.14;20.54;95837.38;171290;28;1216;-50
2021/12/09 00:19:48;;;;;;;;;;;;;;;29.15;20.60;95839.06;171291;28;941;-49
2021/12/09 00:19:54;;;;;;;;;;;;;;;29.11;20.39;95845.72;171376;28;830;-50
2021/12/09 00:19:59;;;;;;;;;;;;;;;29.15;20.38;95839.06;171288;28;1277;-49
2021/12/09 00:20:04;;;;;;;;;;;;;;;29.12;20.36;95836.75;171308;28;890;-49
2021/12/09 00:20:10;;;;;;;;;;;;;;;29.14;20.58;95844.53;171232;28;1102;-50
2021/12/09 00:20:16;;;;;;;;;;;;;;;29.14;20.66;95841.88;171303;28;842;-52
2021/12/09 00:20:21;;;;;;;;;;;;;;;29.13;20.27;95841.06;171241;28;1082;-49
2021/12/09 00:20:26;;;;;;;;;;;;;;;29.12;20.60;95842.06;171324;28;909;-50
2021/12/09 00:20:31;;;;;;;;;;;;;;;29.12;20.29;95843.91;171170;28;1141;-51
2021/12/09 00:20:36;;;;;;;;;;;;;;;29.13;20.43;95840.22;171199;28;952;-50
2021/12/09 00:20:42;;;;;;;;;;;;;;;29.12;20.48;95849.22;171190;28;1342;-51
2021/12/09 00:20:47;;;;;;;;;;;;;;;29.12;20.67;95841.25;171353;28;890;-51
2021/12/09 00:20:52;;;;;;;;;;;;;;;29.12;20.75;95841.25;171264;28;948;-49
2021/12/09 00:20:57;;;;;;;;;;;;;;;29.14;20.27;95841.88;171282;28;1127;-50
2021/12/09 00:21:03;;;;;;;;;;;;;;;29.14;20.74;95842.69;171304;28;904;-50
2021/12/09 00:21:08;;;;;;;;;;;;;;;29.16;20.33;95842.53;171168;28;1178;-51
2021/12/09 00:21:13;;;;;;;;;;;;;;;29.15;20.42;95844.38;171248;28;933;-50
2021/12/09 00:21:18;;;;;;;;;;;;;;;29.17;20.48;95846.84;171282;28;1145;-49
2021/12/09 00:21:24;;;;;;;;;;;;;;;29.17;20.23;95845.00;171239;28;1000;-51
2021/12/09 00:21:29;;;;;;;;;;;;;;;29.16;20.45;95843.34;171236;28;1213;-51
2021/12/09 00:21:34;;;;;;;;;;;;;;;29.11;20.54;95847.56;171210;28;798;-52
2021/12/09 00:21:39;;;;;;;;;;;;;;;29.09;20.40;95838.97;171140;28;810;-50
2021/12/09 00:21:44;;;;;;;;;;;;;;;29.09;20.68;95844.28;171250;28;1201;-51
2021/12/09 00:21:50;;;;;;;;;;;;;;;29.12;20.50;95850.03;171343;28;1157;-50
2021/12/09 00:21:56;;;;;;;;;;;;;;;29.14;20.48;95841.88;171250;28;1189;-50
2021/12/09 00:22:04;;;;;;;;;;;;;;;29.13;20.20;95848.19;171269;28;814;-51
2021/12/09 00:22:11;;;;;;;;;;;;;;;29.10;20.40;95846.75;170797;28;5329;-51
2021/12/09 00:22:16;;;;;;;;;;;;;;;29.11;20.46;95848.38;171195;28;1178;-50
2021/12/09 00:22:21;;;;;;;;;;;;;;;29.12;20.61;95844.72;171298;28;798;-51
2021/12/09 00:22:27;;;;;;;;;;;;;;;29.10;20.42;95846.75;171265;28;1103;-50
2021/12/09 00:22:32;;;;;;;;;;;;;;;29.10;20.59;95845.91;171173;28;901;-50
2021/12/09 00:22:38;;;;;;;;;;;;;;;29.09;20.46;95846.94;171129;28;1051;-50
2021/12/09 00:22:43;;;;;;;;;;;;;;;29.10;20.34;95841.44;171215;28;1158;-50
2021/12/09 00:22:48;;;;;;;;;;;;;;;29.12;20.32;95839.41;171328;28;1044;-51
2021/12/09 00:22:53;;;;;;;;;;;;;;;29.15;20.72;95841.72;171275;28;1225;-50
2021/12/09 00:22:58;;;;;;;;;;;;;;;29.17;20.38;95842.34;171387;28;842;-50
2021/12/09 00:23:04;;;;;;;;;;;;;;;29.16;20.28;95840.72;171268;28;1667;-50
2021/12/09 00:23:09;;;;;;;;;;;;;;;29.15;20.48;95843.53;171275;28;1332;-49
2021/12/09 00:23:14;;;;;;;;;;;;;;;29.14;20.56;95842.69;171300;28;821;-50
2021/12/09 00:23:19;;;;;;;;;;;;;;;29.14;20.25;95836.56;171340;28;1031;-50
2021/12/09 00:23:24;;;;;;;;;;;;;;;29.11;20.54;95837.78;171293;28;817;-52
2021/12/09 00:23:30;;;;;;;;;;;;;;;29.10;20.69;95835.31;170639;28;1539;-51
2021/12/09 00:23:35;;;;;;;;;;;;;;;29.12;20.44;95844.72;170809;28;869;-50
2021/12/09 00:23:40;;;;;;;;;;;;;;;29.11;20.24;95837.78;170403;29;1087;-50
2021/12/09 00:23:45;;;;;;;;;;;;;;;29.11;20.33;95834.28;170632;29;830;-50
2021/12/09 00:23:50;;;;;;;;;;;;;;;29.10;20.57;95833.47;170619;29;1230;-50
2021/12/09 00:23:56;;;;;;;;;;;;;;;29.10;20.54;95836.13;170617;29;890;-50
2021/12/09 00:24:01;;;;;;;;;;;;;;;29.13;20.29;95837.56;170625;29;818;-50
2021/12/09 00:24:06;;;;;;;;;;;;;;;29.15;20.57;95839.06;170544;29;1367;-50
2021/12/09 00:24:11;;;;;;;;;;;;;;;29.16;20.62;95830.09;170619;29;1012;-51
2021/12/09 00:24:16;;;;;;;;;;;;;;;29.18;20.36;95837.84;170502;29;1202;-50
2021/12/09 00:24:22;;;;;;;;;;;;;;;29.18;20.32;95829.91;170662;29;1067;-48
2021/12/09 00:24:27;;;;;;;;;;;;;;;29.14;20.51;95826.78;170584;29;1099;-51
2021/12/09 00:24:32;;;;;;;;;;;;;;;29.12;20.55;95834.09;170595;29;894;-50
2021/12/09 00:24:37;;;;;;;;;;;;;;;29.11;20.23;95831.63;170479;29;1279;-50
2021/12/09 00:24:42;;;;;;;;;;;;;;;29.11;20.66;95826.34;170588;29;834;-51
2021/12/09 00:24:48;;;;;;;;;;;;;;;29.10;20.17;95830.00;170656;29;863;-50
2021/12/09 00:24:53;;;;;;;;;;;;;;;29.06;20.59;95834.84;170567;29;1332;-50
2021/12/09 00:24:58;;;;;;;;;;;;;;;29.06;20.29;95829.53;170643;29;893;-50
2021/12/09 00:25:03;;;;;;;;;;;;;;;29.07;20.59;95825.91;170581;29;1158;-51
2021/12/09 00:25:09;;;;;;;;;;;;;;;29.06;20.41;95828.69;170522;29;902;-51
2021/12/09 00:25:14;;;;;;;;;;;;;;;29.08;20.72;95832.03;170381;28;1815;-50
2021/12/09 00:25:19;;;;;;;;;;;;;;;29.10;20.61;95836.13;170021;28;2111;-50
2021/12/09 00:25:24;;;;;;;;;;;;;;;29.14;20.56;95826.78;170344;28;1816;-50
2021/12/09 00:25:29;;;;;;;;;;;;;;;29.15;20.42;95827.59;170576;29;873;-49
2021/12/09 00:25:35;;;;;;;;;;;;;;;29.14;20.44;95829.44;171121;28;889;-50
2021/12/09 00:25:40;;;;;;;;;;;;;;;29.14;20.31;95825.94;170179;28;1637;-50
2021/12/09 00:25:45;;;;;;;;;;;;;;;29.13;20.45;95824.31;170681;28;2077;-50
2021/12/09 00:25:51;;;;;;;;;;;;;;;29.14;20.36;95828.59;171203;28;1143;-50
2021/12/09 00:25:56;;;;;;;;;;;;;;;29.14;20.60;95826.78;171334;28;877;-51
2021/12/09 00:26:01;;;;;;;;;;;;;;;29.16;20.41;95827.44;171311;28;1091;-51
2021/12/09 00:26:06;;;;;;;;;;;;;;;29.19;20.19;95826.22;170822;28;4278;-50
2021/12/09 00:26:12;;;;;;;;;;;;;;;29.16;20.18;95829.25;171315;28;1166;-51
2021/12/09 00:26:17;;;;;;;;;;;;;;;29.14;20.58;95829.44;171350;28;849;-50
2021/12/09 00:26:22;;;;;;;;;;;;;;;29.11;20.46;95823.69;171374;28;882;-50
2021/12/09 00:26:27;;;;;;;;;;;;;;;29.11;20.29;95824.50;171237;28;1184;-50
2021/12/09 00:26:32;;;;;;;;;;;;;;;29.08;20.29;95829.38;171322;28;855;-50
2021/12/09 00:26:43;;;;;;;;;;;;;;;29.05;20.64;95825.22;171066;28;1149;-50
2021/12/09 00:26:49;;;;;;;;;;;;;;;29.11;20.33;95829.00;171236;28;1177;-50
2021/12/09 00:26:54;;;;;;;;;;;;;;;29.13;20.57;95827.78;171243;28;817;-50
2021/12/09 00:26:59;;;;;;;;;;;;;;;29.14;20.27;95824.13;171242;28;1225;-51
2021/12/09 00:27:04;;;;;;;;;;;;;;;29.16;20.57;95823.97;171343;28;814;-50
2021/12/09 00:27:09;;;;;;;;;;;;;;;29.11;20.38;95829.00;171184;28;1059;-50
2021/12/09 00:27:15;;;;;;;;;;;;;;;29.12;20.64;95828.78;171332;28;814;-51
2021/12/09 00:27:20;;;;;;;;;;;;;;;29.09;20.43;95821.22;171323;28;877;-50
2021/12/09 00:27:25;;;;;;;;;;;;;;;29.08;20.64;95830.19;171244;28;1185;-50
2021/12/09 00:27:30;;;;;;;;;;;;;;;29.09;20.53;95821.22;171284;28;786;-50
2021/12/09 00:27:35;;;;;;;;;;;;;;;29.11;20.59;95831.63;171145;28;1197;-50
2021/12/09 00:27:41;;;;;;;;;;;;;;;29.06;20.72;95829.53;171140;28;905;-50
2021/12/09 00:27:47;;;;;;;;;;;;;;;29.06;20.64;95826.06;171213;28;1158;-51
2021/12/09 00:27:52;;;;;;;;;;;;;;;29.04;20.26;95825.41;171353;28;818;-51
2021/12/09 00:27:57;;;;;;;;;;;;;;;29.04;20.79;95818.28;171252;28;1161;-50
2021/12/09 00:28:03;;;;;;;;;;;;;;;29.07;20.71;95825.91;171257;28;888;-51
2021/12/09 00:28:08;;;;;;;;;;;;;;;29.08;20.39;95826.72;171326;28;1000;-50
2021/12/09 00:28:13;;;;;;;;;;;;;;;29.08;20.44;95827.53;171213;28;1268;-52
2021/12/09 00:28:18;;;;;;;;;;;;;;;29.09;20.71;95818.56;171318;28;845;-51
2021/12/09 00:28:24;;;;;;;;;;;;;;;29.11;20.66;95821.84;171210;28;1174;-50
2021/12/09 00:28:29;;;;;;;;;;;;;;;29.13;20.44;95824.31;171288;28;893;-48
2021/12/09 00:28:34;;;;;;;;;;;;;;;29.13;20.29;95822.47;171188;28;1130;-50
2021/12/09 00:28:39;;;;;;;;;;;;;;;29.13;20.42;95819.81;171179;28;817;-52
2021/12/09 00:28:44;;;;;;;;;;;;;;;29.11;20.31;95816.53;171291;28;1279;-50
2021/12/09 00:28:50;;;;;;;;;;;;;;;29.12;20.25;95826.13;171380;28;847;-50
2021/12/09 00:28:55;;;;;;;;;;;;;;;29.09;20.61;95820.41;171353;28;893;-50
2021/12/09 00:29:00;;;;;;;;;;;;;;;29.11;20.61;95818.38;171299;28;1312;-50
2021/12/09 00:29:06;;;;;;;;;;;;;;;29.12;20.62;95830.63;171362;28;878;-50
2021/12/09 00:29:11;;;;;;;;;;;;;;;29.13;20.56;95821.66;171300;28;1238;-51
2021/12/09 00:29:17;;;;;;;;;;;;;;;29.13;20.43;95819.00;171341;28;1004;-51
2021/12/09 00:29:22;;;;;;;;;;;;;;;29.12;20.48;95825.31;171268;28;1106;-51
2021/12/09 00:29:27;;;;;;;;;;;;;;;29.13;20.60;95817.16;171194;28;817;-50
2021/12/09 00:29:32;;;;;;;;;;;;;;;29.12;20.43;95820.84;171084;28;1225;-51
2021/12/09 00:29:37;;;;;;;;;;;;;;;29.12;20.46;95823.50;171146;28;873;-51
2021/12/09 00:29:43;;;;;;;;;;;;;;;29.11;20.54;95821.84;171114;28;1094;-51
2021/12/09 00:29:48;;;;;;;;;;;;;;;29.13;20.31;95814.50;171266;28;850;-51
2021/12/09 00:29:53;;;;;;;;;;;;;;;29.13;20.43;95813.69;171284;28;739;-50
2021/12/09 00:29:58;;;;;;;;;;;;;;;29.12;20.26;95818.19;171241;28;1165;-50
2021/12/09 00:30:04;;;;;;;;;;;;;;;29.12;20.50;95817.34;171213;28;829;-50
2021/12/09 00:30:10;;;;;;;;;;;;;;;29.14;20.57;95817.97;170684;28;4277;-50
2021/12/09 00:30:15;;;;;;;;;;;;;;;29.15;20.25;95817.81;171246;28;822;-50
2021/12/09 00:30:21;;;;;;;;;;;;;;;29.12;20.50;95817.34;171161;28;1071;-52
2021/12/09 00:30:26;;;;;;;;;;;;;;;29.07;20.62;95812.63;171200;28;860;-50
2021/12/09 00:30:32;;;;;;;;;;;;;;;29.03;20.76;95808.69;171153;28;1150;-50
2021/12/09 00:30:37;;;;;;;;;;;;;;;29.06;20.39;95820.75;171465;28;814;-49
2021/12/09 00:30:42;;;;;;;;;;;;;;;29.04;20.39;95812.97;170727;28;1513;-51
2021/12/09 00:30:47;;;;;;;;;;;;;;;29.04;20.45;95815.63;170927;28;877;-50
2021/12/09 00:30:53;;;;;;;;;;;;;;;29.07;20.45;95812.63;170662;29;810;-51
2021/12/09 00:30:58;;;;;;;;;;;;;;;29.08;20.49;95816.91;171238;28;1325;-49